sensor_id;sensor_type;location;lat;lon;timestamp;P1;P2;P0
65783;PMS5003;52532;53.358;-1.488;2022-09-24T00:01:35;7.8;0.0;
65783;PMS5003;52532;53.358;-1.488;2022-09-24T00:04:39;6.5;0.0;
65783;PMS5003;52532;53.358;-1.488;2022-09-24T00:07:42;9.8;0.0;
65783;PMS5003;52532;53.358;-1.488;2022-09-24T00:10:45;8.1;0.0;
65783;PMS5003;52532;53.358;-1.488;2022-09-24T00:13:50;6.1;0.0;
65783;PMS5003;52532;53.358;-1.488;2022-09-24T00:16:53;10.3;0.0;
65783;PMS5003;52532;53.358;-1.488;2022-09-24T00:19:56;10.1;0.0;
65783;PMS5003;52532;53.358;-1.488;2022-09-24T00:22:59;7.2;0.0;
65783;PMS5003;52532;53.358;-1.488;2022-09-24T00:26:02;12.4;1.7;
65783;PMS5003;52532;53.358;-1.488;2022-09-24T00:30:13;12.4;1.5;
65783;PMS5003;52532;53.358;-1.488;2022-09-24T00:33:16;10.9;3.8;
65783;PMS5003;52532;53.358;-1.488;2022-09-24T00:36:19;10.9;2.2;
65783;PMS5003;52532;53.358;-1.488;2022-09-24T00:39:23;23.4;12.4;
65783;PMS5003;52532;53.358;-1.488;2022-09-24T00:42:26;18.7;11.5;
65783;PMS5003;52532;53.358;-1.488;2022-09-24T00:45:30;7.2;0.1;
65783;PMS5003;52532;53.358;-1.488;2022-09-24T00:48:33;16.5;5.6;
65783;PMS5003;52532;53.358;-1.488;2022-09-24T00:51:36;29.0;20.2;
65783;PMS5003;52532;53.358;-1.488;2022-09-24T00:54:40;10.9;2.9;
65783;PMS5003;52532;53.358;-1.488;2022-09-24T00:57:45;12.1;9.6;
65783;PMS5003;52532;53.358;-1.488;2022-09-24T01:00:51;16.1;14.3;
65783;PMS5003;52532;53.358;-1.488;2022-09-24T01:03:59;7.2;6.9;
65783;PMS5003;52532;53.358;-1.488;2022-09-24T01:07:03;5.3;5.0;
65783;PMS5003;52532;53.358;-1.488;2022-09-24T01:10:06;3.1;3.1;
65783;PMS5003;52532;53.358;-1.488;2022-09-24T01:13:12;2.4;2.4;
65783;PMS5003;52532;53.358;-1.488;2022-09-24T01:16:28;11.4;11.4;
65783;PMS5003;52532;53.358;-1.488;2022-09-24T01:19:44;9.1;9.1;
65783;PMS5003;52532;53.358;-1.488;2022-09-24T01:23:09;3.7;3.7;
65783;PMS5003;52532;53.358;-1.488;2022-09-24T01:26:28;0.4;0.4;
65783;PMS5003;52532;53.358;-1.488;2022-09-24T01:29:43;32.7;26.2;
65783;PMS5003;52532;53.358;-1.488;2022-09-24T01:32:54;47.7;41.1;
65783;PMS5003;52532;53.358;-1.488;2022-09-24T01:36:03;1.5;1.5;
65783;PMS5003;52532;53.358;-1.488;2022-09-24T01:39:09;4.7;4.3;
65783;PMS5003;52532;53.358;-1.488;2022-09-24T01:42:15;3.4;2.6;
65783;PMS5003;52532;53.358;-1.488;2022-09-24T01:45:20;6.0;0.3;
65783;PMS5003;52532;53.358;-1.488;2022-09-24T01:48:23;11.4;0.0;
65783;PMS5003;52532;53.358;-1.488;2022-09-24T01:51:27;8.1;0.4;
65783;PMS5003;52532;53.358;-1.488;2022-09-24T01:54:38;6.1;0.5;
65783;PMS5003;52532;53.358;-1.488;2022-09-24T01:57:44;10.1;0.0;
65783;PMS5003;52532;53.358;-1.488;2022-09-24T02:00:52;9.7;0.2;
65783;PMS5003;52532;53.358;-1.488;2022-09-24T02:04:03;6.7;0.0;
65783;PMS5003;52532;53.358;-1.488;2022-09-24T02:07:14;0.4;0.4;
65783;PMS5003;52532;53.358;-1.488;2022-09-24T02:10:23;5.7;0.0;
65783;PMS5003;52532;53.358;-1.488;2022-09-24T02:13:30;6.9;0.0;
65783;PMS5003;52532;53.358;-1.488;2022-09-24T02:16:40;9.7;1.0;
65783;PMS5003;52532;53.358;-1.488;2022-09-24T02:19:48;11.4;0.0;
65783;PMS5003;52532;53.358;-1.488;2022-09-24T02:22:51;8.1;0.1;
65783;PMS5003;52532;53.358;-1.488;2022-09-24T02:25:58;13.8;6.0;
65783;PMS5003;52532;53.358;-1.488;2022-09-24T02:29:03;25.1;12.8;
65783;PMS5003;52532;53.358;-1.488;2022-09-24T02:32:07;32.0;22.4;
65783;PMS5003;52532;53.358;-1.488;2022-09-24T02:35:14;1.4;1.4;
65783;PMS5003;52532;53.358;-1.488;2022-09-24T02:38:17;3.5;3.5;
65783;PMS5003;52532;53.358;-1.488;2022-09-24T02:41:21;3.3;2.9;
65783;PMS5003;52532;53.358;-1.488;2022-09-24T02:44:25;1.2;0.9;
65783;PMS5003;52532;53.358;-1.488;2022-09-24T02:47:28;2.5;2.5;
65783;PMS5003;52532;53.358;-1.488;2022-09-24T02:50:31;1.4;1.4;
65783;PMS5003;52532;53.358;-1.488;2022-09-24T02:53:34;2.4;2.4;
65783;PMS5003;52532;53.358;-1.488;2022-09-24T02:56:37;1.8;1.8;
65783;PMS5003;52532;53.358;-1.488;2022-09-24T02:59:41;1.0;1.0;
65783;PMS5003;52532;53.358;-1.488;2022-09-24T03:02:44;4.2;3.9;
65783;PMS5003;52532;53.358;-1.488;2022-09-24T03:05:46;5.1;5.1;
65783;PMS5003;52532;53.358;-1.488;2022-09-24T03:08:49;3.6;3.5;
65783;PMS5003;52532;53.358;-1.488;2022-09-24T03:11:54;2.5;2.4;
65783;PMS5003;52532;53.358;-1.488;2022-09-24T03:15:01;4.3;4.3;
65783;PMS5003;52532;53.358;-1.488;2022-09-24T03:18:04;1.6;1.6;
65783;PMS5003;52532;53.358;-1.488;2022-09-24T03:21:09;1.2;1.2;
65783;PMS5003;52532;53.358;-1.488;2022-09-24T03:24:14;1.8;1.8;
65783;PMS5003;52532;53.358;-1.488;2022-09-24T03:27:16;2.0;2.0;
65783;PMS5003;52532;53.358;-1.488;2022-09-24T03:30:19;2.3;2.0;
65783;PMS5003;52532;53.358;-1.488;2022-09-24T03:34:27;5.1;0.3;
65783;PMS5003;52532;53.358;-1.488;2022-09-24T03:37:29;10.3;0.0;
65783;PMS5003;52532;53.358;-1.488;2022-09-24T03:40:35;8.8;0.0;
65783;PMS5003;52532;53.358;-1.488;2022-09-24T03:43:38;5.4;1.8;
65783;PMS5003;52532;53.358;-1.488;2022-09-24T03:46:41;10.2;10.2;
65783;PMS5003;52532;53.358;-1.488;2022-09-24T03:49:44;5.0;3.5;
65783;PMS5003;52532;53.358;-1.488;2022-09-24T03:52:47;4.6;3.1;
65783;PMS5003;52532;53.358;-1.488;2022-09-24T03:55:52;7.0;7.0;
65783;PMS5003;52532;53.358;-1.488;2022-09-24T03:58:57;4.0;4.0;
65783;PMS5003;52532;53.358;-1.488;2022-09-24T04:02:00;4.2;3.4;
65783;PMS5003;52532;53.358;-1.488;2022-09-24T04:05:03;0.0;0.0;
65783;PMS5003;52532;53.358;-1.488;2022-09-24T04:08:06;29.6;29.6;
65783;PMS5003;52532;53.358;-1.488;2022-09-24T04:11:09;38.9;33.7;
65783;PMS5003;52532;53.358;-1.488;2022-09-24T04:14:12;9.3;7.4;
65783;PMS5003;52532;53.358;-1.488;2022-09-24T04:17:14;1.4;1.0;
65783;PMS5003;52532;53.358;-1.488;2022-09-24T04:20:18;1.5;1.5;
65783;PMS5003;52532;53.358;-1.488;2022-09-24T04:23:23;1.0;1.0;
65783;PMS5003;52532;53.358;-1.488;2022-09-24T04:26:26;1.0;1.0;
65783;PMS5003;52532;53.358;-1.488;2022-09-24T04:29:29;1.4;1.4;
65783;PMS5003;52532;53.358;-1.488;2022-09-24T04:32:31;0.8;0.8;
65783;PMS5003;52532;53.358;-1.488;2022-09-24T04:35:34;3.4;1.8;
65783;PMS5003;52532;53.358;-1.488;2022-09-24T04:38:38;1.3;1.3;
65783;PMS5003;52532;53.358;-1.488;2022-09-24T04:41:40;0.4;0.4;
65783;PMS5003;52532;53.358;-1.488;2022-09-24T04:44:43;4.1;0.3;
65783;PMS5003;52532;53.358;-1.488;2022-09-24T04:47:48;1.0;0.9;
65783;PMS5003;52532;53.358;-1.488;2022-09-24T04:50:53;1.0;0.9;
65783;PMS5003;52532;53.358;-1.488;2022-09-24T04:53:55;1.0;1.0;
65783;PMS5003;52532;53.358;-1.488;2022-09-24T04:56:59;5.8;5.8;
65783;PMS5003;52532;53.358;-1.488;2022-09-24T05:00:02;36.1;35.1;
65783;PMS5003;52532;53.358;-1.488;2022-09-24T05:03:08;11.6;9.9;
65783;PMS5003;52532;53.358;-1.488;2022-09-24T05:06:10;2.9;1.2;
65783;PMS5003;52532;53.358;-1.488;2022-09-24T05:09:13;2.0;1.3;
65783;PMS5003;52532;53.358;-1.488;2022-09-24T05:12:16;1.5;1.5;
65783;PMS5003;52532;53.358;-1.488;2022-09-24T05:15:21;2.4;2.4;
65783;PMS5003;52532;53.358;-1.488;2022-09-24T05:18:24;3.7;3.7;
65783;PMS5003;52532;53.358;-1.488;2022-09-24T05:21:28;4.1;4.1;
65783;PMS5003;52532;53.358;-1.488;2022-09-24T05:24:31;2.0;2.0;
65783;PMS5003;52532;53.358;-1.488;2022-09-24T05:27:34;1.5;1.5;
65783;PMS5003;52532;53.358;-1.488;2022-09-24T05:30:37;1.3;1.3;
65783;PMS5003;52532;53.358;-1.488;2022-09-24T05:33:40;3.0;1.8;
65783;PMS5003;52532;53.358;-1.488;2022-09-24T05:36:42;1.9;1.7;
65783;PMS5003;52532;53.358;-1.488;2022-09-24T05:39:45;5.2;4.8;
65783;PMS5003;52532;53.358;-1.488;2022-09-24T05:42:48;7.0;7.0;
65783;PMS5003;52532;53.358;-1.488;2022-09-24T05:45:51;11.3;11.3;
65783;PMS5003;52532;53.358;-1.488;2022-09-24T05:48:55;12.1;11.9;
65783;PMS5003;52532;53.358;-1.488;2022-09-24T05:51:58;2.4;2.2;
65783;PMS5003;52532;53.358;-1.488;2022-09-24T05:55:01;8.8;8.6;
65783;PMS5003;52532;53.358;-1.488;2022-09-24T05:58:04;23.1;22.5;
65783;PMS5003;52532;53.358;-1.488;2022-09-24T06:01:08;13.8;13.5;
65783;PMS5003;52532;53.358;-1.488;2022-09-24T06:04:11;3.8;1.8;
65783;PMS5003;52532;53.358;-1.488;2022-09-24T06:07:14;10.2;10.2;
65783;PMS5003;52532;53.358;-1.488;2022-09-24T06:10:17;11.5;11.2;
65783;PMS5003;52532;53.358;-1.488;2022-09-24T06:13:20;18.4;17.3;
65783;PMS5003;52532;53.358;-1.488;2022-09-24T06:16:23;77.6;69.2;
65783;PMS5003;52532;53.358;-1.488;2022-09-24T06:22:26;27.6;25.2;
65783;PMS5003;52532;53.358;-1.488;2022-09-24T06:25:29;50.4;47.4;
65783;PMS5003;52532;53.358;-1.488;2022-09-24T06:28:32;24.2;24.2;
65783;PMS5003;52532;53.358;-1.488;2022-09-24T06:31:35;4.0;3.1;
65783;PMS5003;52532;53.358;-1.488;2022-09-24T06:34:38;7.5;6.1;
65783;PMS5003;52532;53.358;-1.488;2022-09-24T06:37:41;7.5;6.1;
65783;PMS5003;52532;53.358;-1.488;2022-09-24T06:40:44;2.4;2.0;
65783;PMS5003;52532;53.358;-1.488;2022-09-24T06:43:49;5.4;5.3;
65783;PMS5003;52532;53.358;-1.488;2022-09-24T06:46:55;5.1;5.1;
65783;PMS5003;52532;53.358;-1.488;2022-09-24T06:49:58;1.8;1.8;
65783;PMS5003;52532;53.358;-1.488;2022-09-24T06:53:03;2.3;2.3;
65783;PMS5003;52532;53.358;-1.488;2022-09-24T06:56:07;5.2;3.9;
65783;PMS5003;52532;53.358;-1.488;2022-09-24T06:59:10;3.7;2.8;
65783;PMS5003;52532;53.358;-1.488;2022-09-24T07:02:13;1.9;1.9;
65783;PMS5003;52532;53.358;-1.488;2022-09-24T07:05:16;2.7;2.7;
65783;PMS5003;52532;53.358;-1.488;2022-09-24T07:08:18;1.4;1.4;
65783;PMS5003;52532;53.358;-1.488;2022-09-24T07:11:21;1.2;1.2;
65783;PMS5003;52532;53.358;-1.488;2022-09-24T07:14:24;1.7;1.6;
65783;PMS5003;52532;53.358;-1.488;2022-09-24T07:17:27;3.4;3.4;
65783;PMS5003;52532;53.358;-1.488;2022-09-24T07:20:30;1.6;1.6;
65783;PMS5003;52532;53.358;-1.488;2022-09-24T07:23:35;1.2;1.2;
65783;PMS5003;52532;53.358;-1.488;2022-09-24T07:26:38;1.6;1.6;
65783;PMS5003;52532;53.358;-1.488;2022-09-24T07:29:40;0.3;0.3;
65783;PMS5003;52532;53.358;-1.488;2022-09-24T07:32:43;10.8;3.4;
65783;PMS5003;52532;53.358;-1.488;2022-09-24T07:35:46;14.3;9.5;
65783;PMS5003;52532;53.358;-1.488;2022-09-24T07:38:52;9.4;5.8;
65783;PMS5003;52532;53.358;-1.488;2022-09-24T07:41:57;9.6;9.6;
65783;PMS5003;52532;53.358;-1.488;2022-09-24T07:45:02;9.2;8.7;
65783;PMS5003;52532;53.358;-1.488;2022-09-24T07:48:06;4.7;2.7;
65783;PMS5003;52532;53.358;-1.488;2022-09-24T07:51:11;60.3;46.6;
65783;PMS5003;52532;53.358;-1.488;2022-09-24T07:54:14;71.9;59.4;
65783;PMS5003;52532;53.358;-1.488;2022-09-24T07:57:17;37.9;32.2;
65783;PMS5003;52532;53.358;-1.488;2022-09-24T08:00:20;86.1;75.7;
65783;PMS5003;52532;53.358;-1.488;2022-09-24T08:03:25;106.4;94.0;
65783;PMS5003;52532;53.358;-1.488;2022-09-24T08:06:28;85.3;78.5;
65783;PMS5003;52532;53.358;-1.488;2022-09-24T08:09:34;40.0;30.3;
65783;PMS5003;52532;53.358;-1.488;2022-09-24T08:12:37;99.1;86.6;
65783;PMS5003;52532;53.358;-1.488;2022-09-24T08:15:40;110.1;101.5;
65783;PMS5003;52532;53.358;-1.488;2022-09-24T08:18:42;35.2;35.2;
65783;PMS5003;52532;53.358;-1.488;2022-09-24T08:21:45;43.9;42.8;
65783;PMS5003;52532;53.358;-1.488;2022-09-24T08:24:49;62.9;57.8;
65783;PMS5003;52532;53.358;-1.488;2022-09-24T08:27:53;47.5;39.4;
65783;PMS5003;52532;53.358;-1.488;2022-09-24T08:30:57;145.1;134.3;
65783;PMS5003;52532;53.358;-1.488;2022-09-24T08:34:01;140.5;129.4;
65783;PMS5003;52532;53.358;-1.488;2022-09-24T08:37:04;74.5;68.6;
65783;PMS5003;52532;53.358;-1.488;2022-09-24T08:40:08;118.5;107.3;
65783;PMS5003;52532;53.358;-1.488;2022-09-24T08:43:20;137.7;129.4;
65783;PMS5003;52532;53.358;-1.488;2022-09-24T08:46:39;59.1;56.8;
65783;PMS5003;52532;53.358;-1.488;2022-09-24T08:50:35;70.1;61.8;
65783;PMS5003;52532;53.358;-1.488;2022-09-24T08:53:44;142.3;129.9;
65783;PMS5003;52532;53.358;-1.488;2022-09-24T08:56:52;128.7;120.9;
65783;PMS5003;52532;53.358;-1.488;2022-09-24T08:59:58;88.6;80.9;
65783;PMS5003;52532;53.358;-1.488;2022-09-24T09:03:03;100.6;89.7;
65783;PMS5003;52532;53.358;-1.488;2022-09-24T09:06:18;110.2;100.7;
65783;PMS5003;52532;53.358;-1.488;2022-09-24T09:09:43;33.6;32.6;
65783;PMS5003;52532;53.358;-1.488;2022-09-24T09:12:51;7.5;7.5;
65783;PMS5003;52532;53.358;-1.488;2022-09-24T09:15:59;5.6;5.6;
65783;PMS5003;52532;53.358;-1.488;2022-09-24T09:19:08;1.4;1.4;
65783;PMS5003;52532;53.358;-1.488;2022-09-24T09:22:15;1.1;0.8;
65783;PMS5003;52532;53.358;-1.488;2022-09-24T09:25:25;1.0;1.0;
65783;PMS5003;52532;53.358;-1.488;2022-09-24T09:28:31;0.9;0.9;
65783;PMS5003;52532;53.358;-1.488;2022-09-24T09:31:42;0.0;0.0;
65783;PMS5003;52532;53.358;-1.488;2022-09-24T09:34:54;0.3;0.3;
65783;PMS5003;52532;53.358;-1.488;2022-09-24T09:38:10;0.4;0.0;
65783;PMS5003;52532;53.358;-1.488;2022-09-24T09:41:22;0.3;0.3;
65783;PMS5003;52532;53.358;-1.488;2022-09-24T09:44:37;0.0;0.0;
65783;PMS5003;52532;53.358;-1.488;2022-09-24T09:50:38;0.0;0.0;
65783;PMS5003;52532;53.358;-1.488;2022-09-24T09:53:53;0.0;0.0;
65783;PMS5003;52532;53.358;-1.488;2022-09-24T09:56:58;0.0;0.0;
65783;PMS5003;52532;53.358;-1.488;2022-09-24T10:00:04;0.5;0.5;
65783;PMS5003;52532;53.358;-1.488;2022-09-24T10:03:19;0.2;0.2;
65783;PMS5003;52532;53.358;-1.488;2022-09-24T10:06:26;0.0;0.0;
65783;PMS5003;52532;53.358;-1.488;2022-09-24T10:09:30;0.4;0.0;
65783;PMS5003;52532;53.358;-1.488;2022-09-24T10:12:34;1.0;0.0;
65783;PMS5003;52532;53.358;-1.488;2022-09-24T10:15:38;0.8;0.0;
65783;PMS5003;52532;53.358;-1.488;2022-09-24T10:18:50;1.1;0.0;
65783;PMS5003;52532;53.358;-1.488;2022-09-24T10:21:53;1.6;0.0;
65783;PMS5003;52532;53.358;-1.488;2022-09-24T10:24:58;0.4;0.0;
65783;PMS5003;52532;53.358;-1.488;2022-09-24T10:28:05;0.1;0.1;
65783;PMS5003;52532;53.358;-1.488;2022-09-24T10:33:21;0.0;0.0;
65783;PMS5003;52532;53.358;-1.488;2022-09-24T10:36:25;0.6;0.0;
65783;PMS5003;52532;53.358;-1.488;2022-09-24T10:39:29;0.0;0.0;
65783;PMS5003;52532;53.358;-1.488;2022-09-24T10:42:32;0.0;0.0;
65783;PMS5003;52532;53.358;-1.488;2022-09-24T10:45:39;0.2;0.2;
65783;PMS5003;52532;53.358;-1.488;2022-09-24T10:48:55;0.0;0.0;
65783;PMS5003;52532;53.358;-1.488;2022-09-24T10:52:10;2.7;0.0;
65783;PMS5003;52532;53.358;-1.488;2022-09-24T10:55:30;0.3;0.3;
65783;PMS5003;52532;53.358;-1.488;2022-09-24T10:58:45;0.9;0.9;
65783;PMS5003;52532;53.358;-1.488;2022-09-24T11:03:23;2.0;1.4;
65783;PMS5003;52532;53.358;-1.488;2022-09-24T11:06:46;1.0;0.5;
65783;PMS5003;52532;53.358;-1.488;2022-09-24T11:10:20;17.2;12.9;
65783;PMS5003;52532;53.358;-1.488;2022-09-24T11:13:37;17.6;13.9;
65783;PMS5003;52532;53.358;-1.488;2022-09-24T11:16:56;0.0;0.0;
65783;PMS5003;52532;53.358;-1.488;2022-09-24T11:20:14;0.0;0.0;
65783;PMS5003;52532;53.358;-1.488;2022-09-24T11:23:29;0.0;0.0;
65783;PMS5003;52532;53.358;-1.488;2022-09-24T11:26:47;0.1;0.1;
65783;PMS5003;52532;53.358;-1.488;2022-09-24T11:30:06;0.6;0.0;
65783;PMS5003;52532;53.358;-1.488;2022-09-24T11:36:14;0.0;0.0;
65783;PMS5003;52532;53.358;-1.488;2022-09-24T11:39:32;0.0;0.0;
65783;PMS5003;52532;53.358;-1.488;2022-09-24T11:42:51;0.2;0.0;
65783;PMS5003;52532;53.358;-1.488;2022-09-24T11:46:09;0.1;0.0;
65783;PMS5003;52532;53.358;-1.488;2022-09-24T11:49:40;0.0;0.0;
65783;PMS5003;52532;53.358;-1.488;2022-09-24T11:52:54;0.3;0.0;
65783;PMS5003;52532;53.358;-1.488;2022-09-24T11:56:04;0.3;0.0;
65783;PMS5003;52532;53.358;-1.488;2022-09-24T11:59:15;0.0;0.0;
65783;PMS5003;52532;53.358;-1.488;2022-09-24T12:02:35;0.0;0.0;
65783;PMS5003;52532;53.358;-1.488;2022-09-24T12:05:43;0.0;0.0;
65783;PMS5003;52532;53.358;-1.488;2022-09-24T12:08:51;0.8;0.0;
65783;PMS5003;52532;53.358;-1.488;2022-09-24T12:12:02;1.0;0.0;
65783;PMS5003;52532;53.358;-1.488;2022-09-24T12:15:12;0.0;0.0;
65783;PMS5003;52532;53.358;-1.488;2022-09-24T12:18:21;0.0;0.0;
65783;PMS5003;52532;53.358;-1.488;2022-09-24T12:21:29;0.0;0.0;
65783;PMS5003;52532;53.358;-1.488;2022-09-24T12:27:33;0.0;0.0;
65783;PMS5003;52532;53.358;-1.488;2022-09-24T12:30:38;0.0;0.0;
65783;PMS5003;52532;53.358;-1.488;2022-09-24T12:36:01;0.0;0.0;
65783;PMS5003;52532;53.358;-1.488;2022-09-24T12:39:11;0.6;0.6;
65783;PMS5003;52532;53.358;-1.488;2022-09-24T12:42:29;0.8;0.0;
65783;PMS5003;52532;53.358;-1.488;2022-09-24T12:45:38;0.3;0.0;
65783;PMS5003;52532;53.358;-1.488;2022-09-24T12:48:41;0.0;0.0;
65783;PMS5003;52532;53.358;-1.488;2022-09-24T12:51:46;0.0;0.0;
65783;PMS5003;52532;53.358;-1.488;2022-09-24T12:54:52;0.0;0.0;
65783;PMS5003;52532;53.358;-1.488;2022-09-24T12:58:00;1.1;0.0;
65783;PMS5003;52532;53.358;-1.488;2022-09-24T13:01:10;0.0;0.0;
65783;PMS5003;52532;53.358;-1.488;2022-09-24T13:04:24;0.0;0.0;
65783;PMS5003;52532;53.358;-1.488;2022-09-24T13:07:31;0.0;0.0;
65783;PMS5003;52532;53.358;-1.488;2022-09-24T13:10:36;0.0;0.0;
65783;PMS5003;52532;53.358;-1.488;2022-09-24T13:13:39;0.0;0.0;
65783;PMS5003;52532;53.358;-1.488;2022-09-24T13:16:45;0.0;0.0;
65783;PMS5003;52532;53.358;-1.488;2022-09-24T13:19:55;0.0;0.0;
65783;PMS5003;52532;53.358;-1.488;2022-09-24T13:23:10;0.6;0.6;
65783;PMS5003;52532;53.358;-1.488;2022-09-24T13:26:31;1.4;0.8;
65783;PMS5003;52532;53.358;-1.488;2022-09-24T13:29:36;0.0;0.0;
65783;PMS5003;52532;53.358;-1.488;2022-09-24T13:32:42;0.0;0.0;
65783;PMS5003;52532;53.358;-1.488;2022-09-24T13:35:59;0.0;0.0;
65783;PMS5003;52532;53.358;-1.488;2022-09-24T13:39:09;0.0;0.0;
65783;PMS5003;52532;53.358;-1.488;2022-09-24T13:42:17;1.2;0.0;
65783;PMS5003;52532;53.358;-1.488;2022-09-24T13:45:22;0.1;0.0;
65783;PMS5003;52532;53.358;-1.488;2022-09-24T13:48:28;0.4;0.0;
65783;PMS5003;52532;53.358;-1.488;2022-09-24T13:51:36;0.0;0.0;
65783;PMS5003;52532;53.358;-1.488;2022-09-24T13:54:45;0.0;0.0;
65783;PMS5003;52532;53.358;-1.488;2022-09-24T13:57:52;0.0;0.0;
65783;PMS5003;52532;53.358;-1.488;2022-09-24T14:00:56;0.0;0.0;
65783;PMS5003;52532;53.358;-1.488;2022-09-24T14:04:02;0.0;0.0;
65783;PMS5003;52532;53.358;-1.488;2022-09-24T14:10:11;1.7;0.0;
65783;PMS5003;52532;53.358;-1.488;2022-09-24T14:13:16;1.3;0.7;
65783;PMS5003;52532;53.358;-1.488;2022-09-24T14:16:22;0.6;0.2;
65783;PMS5003;52532;53.358;-1.488;2022-09-24T14:19:25;0.4;0.0;
65783;PMS5003;52532;53.358;-1.488;2022-09-24T14:22:29;0.0;0.0;
65783;PMS5003;52532;53.358;-1.488;2022-09-24T14:25:36;0.0;0.0;
65783;PMS5003;52532;53.358;-1.488;2022-09-24T14:28:40;0.0;0.0;
65783;PMS5003;52532;53.358;-1.488;2022-09-24T14:31:44;0.0;0.0;
65783;PMS5003;52532;53.358;-1.488;2022-09-24T14:34:50;0.4;0.0;
65783;PMS5003;52532;53.358;-1.488;2022-09-24T14:37:57;0.4;0.0;
65783;PMS5003;52532;53.358;-1.488;2022-09-24T14:41:12;0.0;0.0;
65783;PMS5003;52532;53.358;-1.488;2022-09-24T14:44:20;0.0;0.0;
65783;PMS5003;52532;53.358;-1.488;2022-09-24T14:47:25;0.0;0.0;
65783;PMS5003;52532;53.358;-1.488;2022-09-24T14:50:31;0.0;0.0;
65783;PMS5003;52532;53.358;-1.488;2022-09-24T14:53:39;0.3;0.0;
65783;PMS5003;52532;53.358;-1.488;2022-09-24T14:56:42;0.1;0.1;
65783;PMS5003;52532;53.358;-1.488;2022-09-24T14:59:45;0.0;0.0;
65783;PMS5003;52532;53.358;-1.488;2022-09-24T15:02:50;0.0;0.0;
65783;PMS5003;52532;53.358;-1.488;2022-09-24T15:06:02;0.2;0.0;
65783;PMS5003;52532;53.358;-1.488;2022-09-24T15:09:14;0.2;0.1;
65783;PMS5003;52532;53.358;-1.488;2022-09-24T15:12:25;0.1;0.1;
65783;PMS5003;52532;53.358;-1.488;2022-09-24T15:15:32;0.3;0.3;
65783;PMS5003;52532;53.358;-1.488;2022-09-24T15:18:34;0.4;0.4;
65783;PMS5003;52532;53.358;-1.488;2022-09-24T15:21:37;0.0;0.0;
65783;PMS5003;52532;53.358;-1.488;2022-09-24T15:24:40;0.0;0.0;
65783;PMS5003;52532;53.358;-1.488;2022-09-24T15:27:43;0.0;0.0;
65783;PMS5003;52532;53.358;-1.488;2022-09-24T15:30:46;0.0;0.0;
65783;PMS5003;52532;53.358;-1.488;2022-09-24T15:33:49;0.0;0.0;
65783;PMS5003;52532;53.358;-1.488;2022-09-24T15:36:53;0.0;0.0;
65783;PMS5003;52532;53.358;-1.488;2022-09-24T15:40:04;0.5;0.0;
65783;PMS5003;52532;53.358;-1.488;2022-09-24T15:43:16;1.4;0.0;
65783;PMS5003;52532;53.358;-1.488;2022-09-24T15:46:21;0.8;0.1;
65783;PMS5003;52532;53.358;-1.488;2022-09-24T15:49:23;0.1;0.1;
65783;PMS5003;52532;53.358;-1.488;2022-09-24T15:52:26;0.0;0.0;
65783;PMS5003;52532;53.358;-1.488;2022-09-24T15:55:33;0.2;0.0;
65783;PMS5003;52532;53.358;-1.488;2022-09-24T15:58:37;0.1;0.0;
65783;PMS5003;52532;53.358;-1.488;2022-09-24T16:01:40;0.2;0.2;
65783;PMS5003;52532;53.358;-1.488;2022-09-24T16:04:44;0.0;0.0;
65783;PMS5003;52532;53.358;-1.488;2022-09-24T16:07:46;0.0;0.0;
65783;PMS5003;52532;53.358;-1.488;2022-09-24T16:10:50;0.0;0.0;
65783;PMS5003;52532;53.358;-1.488;2022-09-24T16:13:53;0.0;0.0;
65783;PMS5003;52532;53.358;-1.488;2022-09-24T16:16:56;0.0;0.0;
65783;PMS5003;52532;53.358;-1.488;2022-09-24T16:19:59;0.0;0.0;
65783;PMS5003;52532;53.358;-1.488;2022-09-24T16:23:02;0.0;0.0;
65783;PMS5003;52532;53.358;-1.488;2022-09-24T16:26:06;0.0;0.0;
65783;PMS5003;52532;53.358;-1.488;2022-09-24T16:29:09;0.1;0.1;
65783;PMS5003;52532;53.358;-1.488;2022-09-24T16:32:12;0.0;0.0;
65783;PMS5003;52532;53.358;-1.488;2022-09-24T16:35:16;0.5;0.5;
65783;PMS5003;52532;53.358;-1.488;2022-09-24T16:38:19;0.0;0.0;
65783;PMS5003;52532;53.358;-1.488;2022-09-24T16:41:22;0.0;0.0;
65783;PMS5003;52532;53.358;-1.488;2022-09-24T16:44:25;0.0;0.0;
65783;PMS5003;52532;53.358;-1.488;2022-09-24T16:47:29;0.0;0.0;
65783;PMS5003;52532;53.358;-1.488;2022-09-24T16:50:32;0.0;0.0;
65783;PMS5003;52532;53.358;-1.488;2022-09-24T16:53:35;0.0;0.0;
65783;PMS5003;52532;53.358;-1.488;2022-09-24T16:56:38;0.0;0.0;
65783;PMS5003;52532;53.358;-1.488;2022-09-24T16:59:41;0.0;0.0;
65783;PMS5003;52532;53.358;-1.488;2022-09-24T17:02:44;0.1;0.0;
65783;PMS5003;52532;53.358;-1.488;2022-09-24T17:05:47;3.8;0.0;
65783;PMS5003;52532;53.358;-1.488;2022-09-24T17:08:50;10.0;0.0;
65783;PMS5003;52532;53.358;-1.488;2022-09-24T17:14:05;9.4;0.0;
65783;PMS5003;52532;53.358;-1.488;2022-09-24T17:17:09;6.4;0.0;
65783;PMS5003;52532;53.358;-1.488;2022-09-24T17:20:12;0.1;0.0;
65783;PMS5003;52532;53.358;-1.488;2022-09-24T17:23:18;1.0;0.0;
65783;PMS5003;52532;53.358;-1.488;2022-09-24T17:26:22;0.0;0.0;
65783;PMS5003;52532;53.358;-1.488;2022-09-24T17:29:26;0.0;0.0;
65783;PMS5003;52532;53.358;-1.488;2022-09-24T17:32:31;0.0;0.0;
65783;PMS5003;52532;53.358;-1.488;2022-09-24T17:35:34;1.5;0.0;
65783;PMS5003;52532;53.358;-1.488;2022-09-24T17:38:36;6.7;0.0;
65783;PMS5003;52532;53.358;-1.488;2022-09-24T17:41:40;7.1;0.3;
65783;PMS5003;52532;53.358;-1.488;2022-09-24T17:44:42;6.4;0.7;
65783;PMS5003;52532;53.358;-1.488;2022-09-24T17:47:46;0.0;0.0;
65783;PMS5003;52532;53.358;-1.488;2022-09-24T17:51:07;1.0;0.0;
65783;PMS5003;52532;53.358;-1.488;2022-09-24T17:54:13;3.2;0.3;
65783;PMS5003;52532;53.358;-1.488;2022-09-24T17:57:19;0.0;0.0;
65783;PMS5003;52532;53.358;-1.488;2022-09-24T18:00:26;0.0;0.0;
65783;PMS5003;52532;53.358;-1.488;2022-09-24T18:03:37;0.0;0.0;
65783;PMS5003;52532;53.358;-1.488;2022-09-24T18:06:41;0.1;0.1;
65783;PMS5003;52532;53.358;-1.488;2022-09-24T18:09:45;0.0;0.0;
65783;PMS5003;52532;53.358;-1.488;2022-09-24T18:12:48;0.8;0.3;
65783;PMS5003;52532;53.358;-1.488;2022-09-24T18:15:50;0.1;0.1;
65783;PMS5003;52532;53.358;-1.488;2022-09-24T18:18:53;0.0;0.0;
65783;PMS5003;52532;53.358;-1.488;2022-09-24T18:21:58;1.4;0.7;
65783;PMS5003;52532;53.358;-1.488;2022-09-24T18:25:01;1.6;0.8;
65783;PMS5003;52532;53.358;-1.488;2022-09-24T18:28:07;0.0;0.0;
65783;PMS5003;52532;53.358;-1.488;2022-09-24T18:31:14;0.0;0.0;
65783;PMS5003;52532;53.358;-1.488;2022-09-24T18:34:17;0.0;0.0;
65783;PMS5003;52532;53.358;-1.488;2022-09-24T18:37:20;0.3;0.3;
65783;PMS5003;52532;53.358;-1.488;2022-09-24T18:40:23;0.7;0.0;
65783;PMS5003;52532;53.358;-1.488;2022-09-24T18:43:26;3.0;0.0;
65783;PMS5003;52532;53.358;-1.488;2022-09-24T18:46:31;7.8;0.0;
65783;PMS5003;52532;53.358;-1.488;2022-09-24T18:49:35;1.6;0.0;
65783;PMS5003;52532;53.358;-1.488;2022-09-24T18:52:37;2.2;0.2;
65783;PMS5003;52532;53.358;-1.488;2022-09-24T18:55:41;1.9;0.1;
65783;PMS5003;52532;53.358;-1.488;2022-09-24T18:58:44;0.0;0.0;
65783;PMS5003;52532;53.358;-1.488;2022-09-24T19:01:48;0.0;0.0;
65783;PMS5003;52532;53.358;-1.488;2022-09-24T19:04:52;0.1;0.1;
65783;PMS5003;52532;53.358;-1.488;2022-09-24T19:07:54;0.0;0.0;
65783;PMS5003;52532;53.358;-1.488;2022-09-24T19:11:00;0.1;0.0;
65783;PMS5003;52532;53.358;-1.488;2022-09-24T19:14:05;0.0;0.0;
65783;PMS5003;52532;53.358;-1.488;2022-09-24T19:17:08;0.0;0.0;
65783;PMS5003;52532;53.358;-1.488;2022-09-24T19:20:11;0.2;0.2;
65783;PMS5003;52532;53.358;-1.488;2022-09-24T19:23:15;0.7;0.7;
65783;PMS5003;52532;53.358;-1.488;2022-09-24T19:26:18;0.4;0.0;
65783;PMS5003;52532;53.358;-1.488;2022-09-24T19:29:23;0.7;0.0;
65783;PMS5003;52532;53.358;-1.488;2022-09-24T19:32:26;0.5;0.0;
65783;PMS5003;52532;53.358;-1.488;2022-09-24T19:35:29;0.0;0.0;
65783;PMS5003;52532;53.358;-1.488;2022-09-24T19:38:33;0.0;0.0;
65783;PMS5003;52532;53.358;-1.488;2022-09-24T19:41:37;0.0;0.0;
65783;PMS5003;52532;53.358;-1.488;2022-09-24T19:44:40;0.0;0.0;
65783;PMS5003;52532;53.358;-1.488;2022-09-24T19:47:44;0.6;0.6;
65783;PMS5003;52532;53.358;-1.488;2022-09-24T19:50:47;0.6;0.6;
65783;PMS5003;52532;53.358;-1.488;2022-09-24T19:53:51;0.7;0.7;